createdAt,value
2022-12-08T00:01:35.417Z,98672.59
2022-12-08T00:04:04.842Z,98666.94
2022-12-08T00:06:59.762Z,98659.03
2022-12-08T00:09:38.739Z,98660.47
2022-12-08T00:12:10.691Z,98665.06
2022-12-08T00:14:49.004Z,98656.09
2022-12-08T00:17:18.776Z,98665.69
2022-12-08T00:19:46.224Z,98659.63
2022-12-08T00:22:15.257Z,98662.56
2022-12-08T00:24:45.720Z,98661.75
2022-12-08T00:27:15.263Z,98664.22
2022-12-08T00:29:44.953Z,98656.72
2022-12-08T00:32:12.688Z,98666.53
2022-12-08T00:34:40.058Z,98661.78
2022-12-08T00:37:07.193Z,98660.53
2022-12-08T00:39:34.706Z,98661.78
2022-12-08T00:42:14.236Z,98649.28
2022-12-08T00:44:43.803Z,98656.16
2022-12-08T00:47:12.279Z,98653.19
2022-12-08T00:49:39.697Z,98653.44
2022-12-08T00:52:08.126Z,98644.31
2022-12-08T00:54:35.600Z,98658.63
2022-12-08T00:57:03.205Z,98658.84
2022-12-08T00:59:30.356Z,98654.47
2022-12-08T01:01:57.561Z,98657.59
2022-12-08T01:04:24.832Z,98662.16
2022-12-08T01:06:52.201Z,98667.00
2022-12-08T01:09:19.817Z,98660.56
2022-12-08T01:11:47.742Z,98668.88
2022-12-08T01:14:15.580Z,98669.72
2022-12-08T01:16:43.614Z,98671.22
2022-12-08T01:19:16.202Z,98683.91
2022-12-08T01:21:45.098Z,98685.63
2022-12-08T01:24:20.398Z,98685.84
2022-12-08T01:26:48.598Z,98686.88
2022-12-08T01:29:16.101Z,98676.28
2022-12-08T01:31:43.867Z,98685.44
2022-12-08T01:34:12.718Z,98689.59
2022-12-08T01:36:40.132Z,98680.09
2022-12-08T01:39:13.898Z,98686.31
2022-12-08T01:41:41.868Z,98675.09
2022-12-08T01:44:09.617Z,98673.84
2022-12-08T01:46:43.101Z,98665.13
2022-12-08T01:49:20.770Z,98664.94
2022-12-08T01:52:03.820Z,98671.44
2022-12-08T01:54:38.427Z,98661.66
2022-12-08T01:57:12.545Z,98666.88
2022-12-08T01:59:47.424Z,98658.38
2022-12-08T02:02:15.016Z,98661.50
2022-12-08T02:04:42.464Z,98665.25
2022-12-08T02:07:13.060Z,98665.88
2022-12-08T02:09:42.347Z,98664.00
2022-12-08T02:12:10.847Z,98668.75
2022-12-08T02:14:38.216Z,98655.66
2022-12-08T02:17:24.018Z,98657.53
2022-12-08T02:20:18.838Z,98665.22
2022-12-08T02:23:01.657Z,98660.63
2022-12-08T02:25:40.531Z,98657.94
2022-12-08T02:28:38.617Z,98657.09
2022-12-08T02:31:46.419Z,98653.34
2022-12-08T02:34:30.521Z,98649.34
2022-12-08T02:37:08.873Z,98646.66
2022-12-08T02:40:20.752Z,98645.56
2022-12-08T02:43:07.931Z,98645.56
2022-12-08T02:45:46.098Z,98640.16
2022-12-08T02:48:13.349Z,98640.97
2022-12-08T02:50:40.643Z,98636.19
2022-12-08T02:55:44.222Z,98641.38
2022-12-08T02:59:16.027Z,98631.81
2022-12-08T03:01:55.948Z,98632.25
2022-12-08T03:04:35.815Z,98639.56
2022-12-08T03:07:05.216Z,98629.75
2022-12-08T03:09:50.027Z,98628.72
2022-12-08T03:12:36.380Z,98626.63
2022-12-08T03:15:11.251Z,98627.44
2022-12-08T03:17:43.041Z,98626.41
2022-12-08T03:20:16.566Z,98619.53
2022-12-08T03:22:46.389Z,98620.75
2022-12-08T03:25:16.612Z,98620.75
2022-12-08T03:27:44.420Z,98606.00
2022-12-08T03:30:12.319Z,98612.69
2022-12-08T03:32:55.470Z,98615.41
2022-12-08T03:35:27.163Z,98606.88
2022-12-08T03:38:14.720Z,98609.78
2022-12-08T03:40:42.796Z,98603.13
2022-12-08T03:43:10.486Z,98607.47
2022-12-08T03:45:37.737Z,98608.97
2022-12-08T03:48:05.008Z,98619.38
2022-12-08T03:50:32.219Z,98609.59
2022-12-08T03:52:59.411Z,98613.97
2022-12-08T03:55:26.560Z,98612.75
2022-12-08T03:57:53.689Z,98616.25
2022-12-08T04:00:21.043Z,98618.97
2022-12-08T04:02:48.333Z,98610.84
2022-12-08T04:05:15.655Z,98614.38
2022-12-08T04:07:43.696Z,98616.88
2022-12-08T04:10:11.399Z,98609.59
2022-12-08T04:12:38.561Z,98613.53
2022-12-08T04:15:06.470Z,98611.66
2022-12-08T04:17:33.589Z,98614.34
2022-12-08T04:20:00.912Z,98602.69
2022-12-08T04:22:28.206Z,98599.22
2022-12-08T04:24:55.570Z,98603.34
2022-12-08T04:27:22.774Z,98604.38
2022-12-08T04:29:49.958Z,98608.94
2022-12-08T04:32:17.116Z,98602.91
2022-12-08T04:34:44.389Z,98607.94
2022-12-08T04:37:11.660Z,98614.38
2022-12-08T04:39:38.788Z,98617.72
2022-12-08T04:42:06.202Z,98619.38
2022-12-08T04:44:33.478Z,98618.97
2022-12-08T04:47:00.646Z,98613.78
2022-12-08T04:49:27.953Z,98614.38
2022-12-08T04:51:55.097Z,98613.59
2022-12-08T04:54:22.311Z,98602.31
2022-12-08T04:56:49.436Z,98605.88
2022-12-08T04:59:16.616Z,98607.31
2022-12-08T05:01:43.897Z,98610.25
2022-12-08T05:04:11.172Z,98604.44
2022-12-08T05:06:38.322Z,98601.09
2022-12-08T05:09:05.478Z,98606.34
2022-12-08T05:11:32.783Z,98600.31
2022-12-08T05:13:59.951Z,98594.50
2022-12-08T05:16:27.271Z,98596.38
2022-12-08T05:18:54.425Z,98600.38
2022-12-08T05:21:21.562Z,98592.25
2022-12-08T05:23:48.707Z,98591.44
2022-12-08T05:26:15.822Z,98583.31
2022-12-08T05:28:43.925Z,98583.75
2022-12-08T05:31:14.724Z,98590.19
2022-12-08T05:33:42.450Z,98594.31
2022-12-08T05:36:14.831Z,98586.66
2022-12-08T05:38:43.037Z,98584.53
2022-12-08T05:41:20.204Z,98570.59
2022-12-08T05:43:48.274Z,98570.38
2022-12-08T05:46:16.766Z,98581.00
2022-12-08T05:48:44.204Z,98576.41
2022-12-08T05:51:24.291Z,98572.88
2022-12-08T05:53:52.942Z,98575.56
2022-12-08T05:56:21.377Z,98581.00
2022-12-08T05:58:48.795Z,98580.75
2022-12-08T06:01:29.468Z,98569.53
2022-12-08T06:03:59.403Z,98566.84
2022-12-08T06:06:27.741Z,98575.13
2022-12-08T06:08:55.198Z,98570.56
2022-12-08T06:11:30.720Z,98576.81
2022-12-08T06:13:58.610Z,98575.78
2022-12-08T06:16:27.436Z,98575.78
2022-12-08T06:18:55.883Z,98587.00
2022-12-08T06:21:23.250Z,98592.19
2022-12-08T06:24:00.905Z,98580.53
2022-12-08T06:26:28.696Z,98592.41
2022-12-08T06:28:56.038Z,98577.25
2022-12-08T06:31:27.964Z,98585.56
2022-12-08T06:33:56.229Z,98583.06
2022-12-08T06:36:28.406Z,98598.25
2022-12-08T06:38:56.332Z,98599.09
2022-12-08T06:41:23.839Z,98602.00
2022-12-08T06:43:51.098Z,98606.56
2022-12-08T06:46:21.375Z,98607.59
2022-12-08T06:48:51.207Z,98615.72
2022-12-08T06:51:22.855Z,98607.66
2022-12-08T06:53:50.584Z,98611.34
2022-12-08T06:56:20.249Z,98603.66
2022-12-08T06:58:52.353Z,98608.03
2022-12-08T07:01:20.434Z,98606.38
2022-12-08T07:03:47.964Z,98603.66
2022-12-08T07:06:20.953Z,98626.34
2022-12-08T07:08:57.432Z,98619.69
2022-12-08T07:11:24.774Z,98608.91
2022-12-08T07:13:52.496Z,98622.16
2022-12-08T07:16:20.194Z,98617.84
2022-12-08T07:18:47.509Z,98618.69
2022-12-08T07:21:15.404Z,98622.25
2022-12-08T07:23:45.653Z,98622.91
2022-12-08T07:26:14.052Z,98613.75
2022-12-08T07:28:42.849Z,98615.81
2022-12-08T07:31:23.909Z,98612.34
2022-12-08T07:33:52.541Z,98612.53
2022-12-08T07:36:19.872Z,98601.97
2022-12-08T07:38:47.814Z,98615.03
2022-12-08T07:41:17.883Z,98617.53
2022-12-08T07:43:45.853Z,98612.53
2022-12-08T07:46:15.425Z,98623.75
2022-12-08T07:48:43.826Z,98622.91
2022-12-08T07:51:13.796Z,98618.13
2022-12-08T07:53:46.206Z,98618.13
2022-12-08T07:56:17.303Z,98612.09
2022-12-08T07:58:46.815Z,98615.03
2022-12-08T08:01:29.723Z,98616.47
2022-12-08T08:04:02.030Z,98614.59
2022-12-08T08:06:29.553Z,98615.19
2022-12-08T08:08:56.813Z,98616.03
2022-12-08T08:11:24.398Z,98623.94
2022-12-08T08:13:52.222Z,98613.97
2022-12-08T08:16:21.182Z,98616.03
2022-12-08T08:18:50.855Z,98607.47
2022-12-08T08:21:44.312Z,98605.84
2022-12-08T08:24:07.313Z,98604.59
2022-12-08T08:26:34.477Z,98610.63
2022-12-08T08:29:01.653Z,98610.41
2022-12-08T08:31:28.992Z,98612.69
2022-12-08T08:33:57.935Z,98627.44
2022-12-08T08:36:25.215Z,98625.38
2022-12-08T08:38:53.019Z,98615.59
2022-12-08T08:41:20.212Z,98619.31
2022-12-08T08:43:47.383Z,98624.91
2022-12-08T08:46:14.684Z,98619.13
2022-12-08T08:48:42.414Z,98628.22
2022-12-08T08:51:14.970Z,98623.25
2022-12-08T08:53:42.980Z,98626.16
2022-12-08T08:56:19.293Z,98618.03
2022-12-08T08:58:52.212Z,98629.28
2022-12-08T09:01:26.765Z,98626.16
2022-12-08T09:03:55.332Z,98616.16
2022-12-08T09:06:23.334Z,98614.09
2022-12-08T09:08:51.365Z,98612.25
2022-12-08T09:11:18.842Z,98611.84
2022-12-08T09:13:49.899Z,98617.63
2022-12-08T09:16:18.333Z,98601.66
2022-12-08T09:18:45.699Z,98600.78
2022-12-08T09:21:20.399Z,98599.28
2022-12-08T09:23:47.708Z,98588.72
2022-12-08T09:26:14.944Z,98601.59
2022-12-08T09:28:46.561Z,98600.13
2022-12-08T09:31:15.222Z,98601.81
2022-12-08T09:33:42.844Z,98601.34
2022-12-08T09:36:11.835Z,98588.28
2022-12-08T09:38:40.524Z,98584.91
2022-12-08T09:41:40.343Z,98583.63
2022-12-08T09:44:59.822Z,98579.94
2022-12-08T09:47:41.439Z,98582.41
2022-12-08T09:50:34.432Z,98580.53
2022-12-08T09:53:36.822Z,98575.75
2022-12-08T09:56:13.761Z,98579.50
2022-12-08T09:59:16.964Z,98560.34
2022-12-08T10:01:44.311Z,98561.78
2022-12-08T10:04:36.907Z,98560.94
2022-12-08T10:07:25.816Z,98569.06
2022-12-08T10:10:37.818Z,98566.53
2022-12-08T10:13:26.257Z,98566.53
2022-12-08T10:16:44.473Z,98558.81
2022-12-08T10:19:23.087Z,98559.41
2022-12-08T10:21:51.801Z,98549.00
2022-12-08T10:24:44.213Z,98543.97
2022-12-08T10:27:13.358Z,98545.84
2022-12-08T10:29:41.793Z,98543.53
2022-12-08T10:32:35.789Z,98533.31
2022-12-08T10:35:08.860Z,98531.88
2022-12-08T10:37:36.823Z,98536.44
2022-12-08T10:40:15.715Z,98517.13
2022-12-08T10:42:53.776Z,98506.53
2022-12-08T10:45:44.006Z,98506.13
2022-12-08T10:48:19.760Z,98521.50
2022-12-08T10:50:53.028Z,98514.19
2022-12-08T10:53:30.526Z,98508.78
2022-12-08T10:56:03.981Z,98511.25
2022-12-08T10:58:37.276Z,98510.00
2022-12-08T11:01:12.505Z,98502.06
2022-12-08T11:04:02.121Z,98494.34
2022-12-08T11:06:29.189Z,98495.56
2022-12-08T11:09:04.814Z,98487.25
2022-12-08T11:12:07.864Z,98494.78
2022-12-08T11:14:43.720Z,98490.41
2022-12-08T11:17:25.915Z,98487.06
2022-12-08T11:20:01.595Z,98492.88
2022-12-08T11:22:36.179Z,98476.88
2022-12-08T11:25:25.861Z,98480.59
2022-12-08T11:28:01.313Z,98479.13
2022-12-08T11:30:32.265Z,98472.88
2022-12-08T11:33:12.074Z,98478.06
2022-12-08T11:35:44.370Z,98475.38
2022-12-08T11:38:23.773Z,98480.31
2022-12-08T11:41:14.183Z,98473.03
2022-12-08T11:43:48.122Z,98475.75
2022-12-08T11:46:22.472Z,98473.25
2022-12-08T11:49:05.982Z,98464.91
2022-12-08T11:51:56.057Z,98457.00
2022-12-08T11:54:24.754Z,98462.22
2022-12-08T11:57:20.713Z,98461.38
2022-12-08T11:59:56.032Z,98468.06
2022-12-08T12:02:29.873Z,98463.25
2022-12-08T12:05:23.598Z,98459.28
2022-12-08T12:08:28.764Z,98456.97
2022-12-08T12:11:45.158Z,98450.88
2022-12-08T12:14:33.885Z,98455.22
2022-12-08T12:17:05.276Z,98446.28
2022-12-08T12:19:39.328Z,98453.34
2022-12-08T12:22:17.409Z,98446.66
2022-12-08T12:24:51.091Z,98448.09
2022-12-08T12:27:29.587Z,98443.50
2022-12-08T12:30:05.003Z,98444.94
2022-12-08T12:32:58.254Z,98438.09
2022-12-08T12:35:36.318Z,98450.59
2022-12-08T12:38:40.354Z,98445.16
2022-12-08T12:41:09.327Z,98442.00
2022-12-08T12:43:38.755Z,98440.13
2022-12-08T12:46:24.357Z,98432.84
2022-12-08T12:48:52.903Z,98417.41
2022-12-08T12:51:40.016Z,98410.56
2022-12-08T12:54:33.732Z,98410.38
2022-12-08T12:57:10.247Z,98411.22
2022-12-08T13:00:06.904Z,98407.31
2022-12-08T13:02:40.871Z,98400.38
2022-12-08T13:05:24.332Z,98396.06
2022-12-08T13:08:08.618Z,98391.91
2022-12-08T13:10:41.300Z,98390.69
2022-12-08T13:13:12.711Z,98399.84
2022-12-08T13:15:47.720Z,98394.53
2022-12-08T13:18:41.921Z,98397.22
2022-12-08T13:21:09.000Z,98399.72
2022-12-08T13:23:43.039Z,98394.31
2022-12-08T13:26:17.896Z,98397.03
2022-12-08T13:29:04.005Z,98399.28
2022-12-08T13:31:52.601Z,98396.41
2022-12-08T13:34:45.563Z,98401.81
2022-12-08T13:37:13.627Z,98402.44
2022-12-08T13:39:40.887Z,98400.31
2022-12-08T13:42:26.624Z,98406.09
2022-12-08T13:49:32.830Z,98398.13
2022-12-08T13:57:27.181Z,98389.66
2022-12-08T13:59:54.427Z,98390.47
2022-12-08T14:02:33.801Z,98396.44
2022-12-08T14:05:19.030Z,98397.25
2022-12-08T14:07:52.004Z,98395.13
2022-12-08T14:10:32.004Z,98400.91
2022-12-08T14:13:04.730Z,98399.41
2022-12-08T14:15:38.543Z,98402.97
2022-12-08T14:18:25.832Z,98397.38
2022-12-08T14:21:22.239Z,98396.97
2022-12-08T14:23:49.550Z,98385.03
2022-12-08T14:26:17.979Z,98379.03
2022-12-08T14:28:45.467Z,98384.81
2022-12-08T14:31:14.631Z,98384.00
2022-12-08T14:33:43.100Z,98384.38
2022-12-08T14:36:11.648Z,98378.94
2022-12-08T14:38:39.224Z,98378.13
2022-12-08T14:41:09.645Z,98382.28
2022-12-08T14:43:36.913Z,98375.41
2022-12-08T14:46:20.784Z,98376.25
2022-12-08T14:48:48.447Z,98384.31
2022-12-08T14:51:28.284Z,98379.72
2022-12-08T14:53:59.527Z,98384.31
2022-12-08T14:56:33.980Z,98384.31
2022-12-08T14:59:06.360Z,98374.16
2022-12-08T15:01:35.357Z,98378.53
2022-12-08T15:04:13.879Z,98385.94
2022-12-08T15:06:53.517Z,98383.22
2022-12-08T15:09:37.196Z,98370.50
2022-12-08T15:12:13.400Z,98375.50
2022-12-08T15:15:17.060Z,98371.59
2022-12-08T15:17:50.204Z,98357.81
2022-12-08T15:20:43.112Z,98360.06
2022-12-08T15:23:41.908Z,98350.88
2022-12-08T15:26:13.063Z,98336.97
2022-12-08T15:28:42.709Z,98342.53
2022-12-08T15:31:11.022Z,98339.09
2022-12-08T15:33:38.681Z,98340.59
2022-12-08T15:36:06.492Z,98338.94
2022-12-08T15:38:34.278Z,98343.31
2022-12-08T15:41:01.907Z,98348.00
2022-12-08T15:43:31.868Z,98341.41
2022-12-08T15:46:02.447Z,98342.47
2022-12-08T15:48:33.999Z,98335.75
2022-12-08T15:51:01.593Z,98329.50
2022-12-08T15:53:29.287Z,98346.81
2022-12-08T15:58:55.561Z,98341.41
2022-12-08T16:01:24.150Z,98360.88
2022-12-08T16:09:34.616Z,98367.50
2022-12-08T16:12:21.049Z,98365.88
2022-12-08T16:17:37.968Z,98357.38
2022-12-08T16:20:11.311Z,98354.03
2022-12-08T16:23:03.662Z,98340.28
2022-12-08T16:25:28.772Z,98339.44
2022-12-08T16:28:12.435Z,98356.44
2022-12-08T16:30:48.062Z,98347.72
2022-12-08T16:33:16.610Z,98364.78
2022-12-08T16:35:44.220Z,98355.41
2022-12-08T16:38:16.474Z,98367.91
2022-12-08T16:41:06.718Z,98371.19
2022-12-08T16:43:34.848Z,98371.81
2022-12-08T16:46:03.544Z,98365.97
2022-12-08T16:48:31.287Z,98357.94
2022-12-08T16:50:58.747Z,98358.56
2022-12-08T16:53:25.976Z,98369.53
2022-12-08T16:55:53.175Z,98381.81
2022-12-08T16:58:20.546Z,98365.03
2022-12-08T17:00:48.397Z,98384.59
2022-12-08T17:03:17.730Z,98370.22
2022-12-08T17:05:44.951Z,98374.81
2022-12-08T17:08:13.313Z,98374.38
2022-12-08T17:10:41.565Z,98370.09
2022-12-08T17:13:09.593Z,98381.03
2022-12-08T17:15:37.186Z,98373.63
2022-12-08T17:18:04.856Z,98394.47
2022-12-08T17:20:34.205Z,98366.84
2022-12-08T17:23:01.398Z,98385.28
2022-12-08T17:25:28.880Z,98387.00
2022-12-08T17:27:56.447Z,98386.03
2022-12-08T17:30:23.930Z,98375.34
2022-12-08T17:32:52.919Z,98388.44
2022-12-08T17:35:20.347Z,98392.66
2022-12-08T17:37:47.828Z,98380.59
2022-12-08T17:40:15.216Z,98388.72
2022-12-08T17:42:42.604Z,98371.94
2022-12-08T17:45:10.593Z,98380.28
2022-12-08T17:47:37.775Z,98379.03
2022-12-08T17:50:07.227Z,98374.03
2022-12-08T17:52:34.598Z,98383.22
2022-12-08T17:55:01.871Z,98385.78
2022-12-08T17:57:29.139Z,98383.28
2022-12-08T17:59:56.662Z,98382.69
2022-12-08T18:02:24.230Z,98393.28
2022-12-08T18:04:51.433Z,98393.06
2022-12-08T18:07:18.929Z,98391.22
2022-12-08T18:09:46.281Z,98368.44
2022-12-08T18:12:13.614Z,98388.97
2022-12-08T18:14:41.100Z,98371.91
2022-12-08T18:17:08.546Z,98366.66
2022-12-08T18:19:35.917Z,98361.75
2022-12-08T18:22:03.357Z,98364.41
2022-12-08T18:24:30.863Z,98367.94
2022-12-08T18:26:58.669Z,98367.53
2022-12-08T18:29:26.251Z,98350.75
2022-12-08T18:31:53.766Z,98357.41
2022-12-08T18:34:21.428Z,98348.06
2022-12-08T18:36:49.331Z,98341.00
2022-12-08T18:39:29.343Z,98334.81
2022-12-08T18:41:58.721Z,98339.25
2022-12-08T18:44:26.442Z,98331.06
2022-12-08T18:46:53.925Z,98343.28
2022-12-08T18:49:21.316Z,98323.16
2022-12-08T18:51:48.930Z,98321.09
2022-12-08T18:54:16.484Z,98332.38
2022-12-08T18:56:44.081Z,98324.09
2022-12-08T18:59:13.672Z,98334.44
2022-12-08T19:01:41.992Z,98342.34
2022-12-08T19:06:58.124Z,98330.09
2022-12-08T19:09:27.152Z,98337.31
2022-12-08T19:11:55.216Z,98333.63
2022-12-08T19:14:27.781Z,98341.31
2022-12-08T19:16:56.609Z,98324.25
2022-12-08T19:19:25.507Z,98353.34
2022-12-08T19:21:53.184Z,98343.94
2022-12-08T19:24:21.075Z,98334.41
2022-12-08T19:26:48.608Z,98344.56
2022-12-08T19:29:16.355Z,98335.19
2022-12-08T19:31:44.807Z,98339.94
2022-12-08T19:34:14.645Z,98331.97
2022-12-08T19:36:43.152Z,98332.63
2022-12-08T19:39:40.960Z,98335.28
2022-12-08T19:42:39.194Z,98321.16
2022-12-08T19:45:17.742Z,98332.53
2022-12-08T19:47:45.702Z,98328.06
2022-12-08T19:50:34.355Z,98323.94
2022-12-08T19:53:05.976Z,98322.50
2022-12-08T19:55:34.517Z,98320.25
2022-12-08T19:58:02.197Z,98325.75
2022-12-08T20:00:31.830Z,98318.91
2022-12-08T20:03:00.360Z,98317.88
2022-12-08T20:05:28.236Z,98314.34
2022-12-08T20:07:56.452Z,98313.06
2022-12-08T20:10:37.535Z,98320.97
2022-12-08T20:13:24.758Z,98322.25
2022-12-08T20:15:52.906Z,98313.72
2022-12-08T20:18:21.393Z,98336.34
2022-12-08T20:20:49.304Z,98336.34
2022-12-08T20:23:17.374Z,98333.28
2022-12-08T20:25:47.905Z,98333.28
2022-12-08T20:28:15.612Z,98315.84
2022-12-08T20:30:47.053Z,98324.94
2022-12-08T20:33:16.473Z,98328.63
2022-12-08T20:35:44.702Z,98316.22
2022-12-08T20:38:12.589Z,98322.25
2022-12-08T20:40:44.407Z,98328.63
2022-12-08T20:43:11.674Z,98315.53
2022-12-08T20:45:38.962Z,98324.88
2022-12-08T20:48:06.749Z,98326.19
2022-12-08T20:50:34.180Z,98321.25
2022-12-08T20:53:01.578Z,98335.78
2022-12-08T20:55:28.956Z,98332.28
2022-12-08T20:57:56.514Z,98332.13
2022-12-08T21:00:26.154Z,98323.19
2022-12-08T21:02:56.708Z,98329.69
2022-12-08T21:05:24.802Z,98331.72
2022-12-08T21:07:52.278Z,98330.78
2022-12-08T21:10:19.992Z,98329.69
2022-12-08T21:12:47.299Z,98327.66
2022-12-08T21:15:14.904Z,98326.84
2022-12-08T21:17:42.265Z,98335.34
2022-12-08T21:20:10.791Z,98326.16
2022-12-08T21:22:40.256Z,98330.16
2022-12-08T21:25:09.222Z,98327.91
2022-12-08T21:27:38.402Z,98323.97
2022-12-08T21:30:08.417Z,98338.47
2022-12-08T21:32:37.654Z,98329.97
2022-12-08T21:35:06.267Z,98331.84
2022-12-08T21:37:33.761Z,98329.97
2022-12-08T21:40:01.105Z,98334.78
2022-12-08T21:42:46.723Z,98332.31
2022-12-08T21:45:19.722Z,98327.34
2022-12-08T21:47:48.722Z,98328.59
2022-12-08T21:50:16.808Z,98319.44
2022-12-08T21:52:47.241Z,98328.59
2022-12-08T21:55:16.688Z,98324.47
2022-12-08T21:57:44.160Z,98315.13
2022-12-08T22:00:16.701Z,98319.97
2022-12-08T22:02:44.569Z,98332.41
2022-12-08T22:05:12.248Z,98318.88
2022-12-08T22:07:40.672Z,98317.00
2022-12-08T22:10:10.589Z,98304.53
2022-12-08T22:12:39.264Z,98303.94
2022-12-08T22:15:08.470Z,98309.34
2022-12-08T22:17:44.230Z,98309.34
2022-12-08T22:20:15.447Z,98309.56
2022-12-08T22:22:43.886Z,98299.66
2022-12-08T22:25:12.163Z,98306.09
2022-12-08T22:27:41.461Z,98303.41
2022-12-08T22:30:10.862Z,98301.28
2022-12-08T22:32:39.242Z,98301.06
2022-12-08T22:35:07.308Z,98299.81
2022-12-08T22:37:35.174Z,98305.81
2022-12-08T22:40:03.132Z,98307.69
2022-12-08T22:42:30.905Z,98302.53
2022-12-08T22:44:58.400Z,98303.31
2022-12-08T22:47:25.901Z,98312.88
2022-12-08T22:49:53.484Z,98299.81
2022-12-08T22:52:20.948Z,98296.44
2022-12-08T22:54:48.492Z,98296.28
2022-12-08T22:57:15.917Z,98299.75
2022-12-08T22:59:43.689Z,98295.00
2022-12-08T23:02:11.437Z,98295.47
2022-12-08T23:04:39.473Z,98295.75
2022-12-08T23:07:06.988Z,98302.25
2022-12-08T23:09:34.530Z,98282.91
2022-12-08T23:12:02.157Z,98288.09
2022-12-08T23:14:29.629Z,98298.03
2022-12-08T23:16:57.352Z,98301.13
2022-12-08T23:19:25.952Z,98292.63
2022-12-08T23:21:53.126Z,98301.13
2022-12-08T23:24:20.315Z,98304.00
2022-12-08T23:26:47.485Z,98305.44
2022-12-08T23:29:15.003Z,98312.03
2022-12-08T23:31:42.575Z,98309.94
2022-12-08T23:34:10.742Z,98306.81
2022-12-08T23:36:38.541Z,98306.19
2022-12-08T23:39:06.415Z,98310.34
2022-12-08T23:41:33.738Z,98321.75
2022-12-08T23:44:00.874Z,98315.50
2022-12-08T23:46:28.183Z,98320.50
2022-12-08T23:48:55.610Z,98316.28
2022-12-08T23:51:22.824Z,98311.31
2022-12-08T23:53:50.040Z,98312.13
2022-12-08T23:56:18.842Z,98305.47
2022-12-08T23:58:46.780Z,98306.06
